Terminal Aerodrome Forecast
Issued by NWS Goodland, KS

Home | Current Version | Previous Version | Text Only | Print | Product List | Glossary On
Versions: 1 2 3 4 5 6 7 8 9 10 11 12
000
FTUS43 KGLD 272320
TAFGLD
TAF
KGLD 272320Z 2800/2824 32010G16KT P6SM VCSH BKN080
     FM280500 32007KT P6SM BKN110
      TEMPO 2810/2813 6SM BR SCT020
     FM281400 35011KT P6SM SCT060
     FM281800 02010G18KT P6SM SCT200=

USA.gov is the U.S. government's official web portal to all federal, state and local government web resources and services.